sensor_id;sensor_type;location;lat;lon;timestamp;P1;durP1;ratioP1;P2;durP2;ratioP2
16977;SDS011;8605;52.548;4.918;2023-04-15T00:00:04;0.57;;;0.57;;
16977;SDS011;8605;52.548;4.918;2023-04-15T00:05:14;2.58;;;0.47;;
16977;SDS011;8605;52.548;4.918;2023-04-15T00:10:18;0.40;;;0.37;;
16977;SDS011;8605;52.548;4.918;2023-04-15T00:15:21;0.57;;;0.57;;
16977;SDS011;8605;52.548;4.918;2023-04-15T00:20:36;14.40;;;1.08;;
16977;SDS011;8605;52.548;4.918;2023-04-15T00:25:40;0.70;;;0.70;;
16977;SDS011;8605;52.548;4.918;2023-04-15T00:30:43;3.85;;;1.50;;
16977;SDS011;8605;52.548;4.918;2023-04-15T00:35:46;0.50;;;0.50;;
16977;SDS011;8605;52.548;4.918;2023-04-15T00:40:50;0.63;;;0.63;;
16977;SDS011;8605;52.548;4.918;2023-04-15T00:46:13;0.80;;;0.80;;
16977;SDS011;8605;52.548;4.918;2023-04-15T00:51:17;0.45;;;0.45;;
16977;SDS011;8605;52.548;4.918;2023-04-15T00:56:24;0.83;;;0.63;;
16977;SDS011;8605;52.548;4.918;2023-04-15T01:01:27;0.70;;;0.70;;
16977;SDS011;8605;52.548;4.918;2023-04-15T01:06:31;0.80;;;0.80;;
16977;SDS011;8605;52.548;4.918;2023-04-15T01:11:50;0.40;;;0.40;;
16977;SDS011;8605;52.548;4.918;2023-04-15T01:16:53;0.50;;;0.50;;
16977;SDS011;8605;52.548;4.918;2023-04-15T01:21:57;0.40;;;0.40;;
16977;SDS011;8605;52.548;4.918;2023-04-15T01:27:02;3.00;;;0.90;;
16977;SDS011;8605;52.548;4.918;2023-04-15T01:32:05;1.27;;;0.77;;
16977;SDS011;8605;52.548;4.918;2023-04-15T01:37:25;0.70;;;0.70;;
16977;SDS011;8605;52.548;4.918;2023-04-15T01:42:29;2.40;;;1.60;;
16977;SDS011;8605;52.548;4.918;2023-04-15T01:47:33;0.30;;;0.30;;
16977;SDS011;8605;52.548;4.918;2023-04-15T01:52:36;0.50;;;0.50;;
16977;SDS011;8605;52.548;4.918;2023-04-15T01:57:41;1.30;;;0.80;;
16977;SDS011;8605;52.548;4.918;2023-04-15T02:03:02;1.27;;;0.87;;
16977;SDS011;8605;52.548;4.918;2023-04-15T02:08:05;1.13;;;1.02;;
16977;SDS011;8605;52.548;4.918;2023-04-15T02:13:12;2.30;;;0.90;;
16977;SDS011;8605;52.548;4.918;2023-04-15T02:18:15;0.60;;;0.60;;
16977;SDS011;8605;52.548;4.918;2023-04-15T02:23:18;0.88;;;0.88;;
16977;SDS011;8605;52.548;4.918;2023-04-15T02:28:38;0.80;;;0.60;;
16977;SDS011;8605;52.548;4.918;2023-04-15T02:33:41;0.30;;;0.30;;
16977;SDS011;8605;52.548;4.918;2023-04-15T02:38:44;0.80;;;0.80;;
16977;SDS011;8605;52.548;4.918;2023-04-15T02:43:50;0.40;;;0.40;;
16977;SDS011;8605;52.548;4.918;2023-04-15T02:48:53;0.90;;;0.82;;
16977;SDS011;8605;52.548;4.918;2023-04-15T02:54:13;1.03;;;0.33;;
16977;SDS011;8605;52.548;4.918;2023-04-15T02:59:18;0.60;;;0.60;;
16977;SDS011;8605;52.548;4.918;2023-04-15T03:04:20;0.82;;;0.82;;
16977;SDS011;8605;52.548;4.918;2023-04-15T03:09:23;0.73;;;0.73;;
16977;SDS011;8605;52.548;4.918;2023-04-15T03:14:31;0.90;;;0.88;;
16977;SDS011;8605;52.548;4.918;2023-04-15T03:19:50;2.10;;;1.30;;
16977;SDS011;8605;52.548;4.918;2023-04-15T03:24:53;0.30;;;0.30;;
16977;SDS011;8605;52.548;4.918;2023-04-15T03:29:57;1.67;;;1.57;;
16977;SDS011;8605;52.548;4.918;2023-04-15T03:35:03;0.40;;;0.40;;
16977;SDS011;8605;52.548;4.918;2023-04-15T03:40:07;1.90;;;1.48;;
16977;SDS011;8605;52.548;4.918;2023-04-15T03:45:31;0.85;;;0.85;;
16977;SDS011;8605;52.548;4.918;2023-04-15T03:50:34;0.80;;;0.80;;
16977;SDS011;8605;52.548;4.918;2023-04-15T03:55:37;0.47;;;0.47;;
16977;SDS011;8605;52.548;4.918;2023-04-15T04:00:41;1.50;;;1.40;;
16977;SDS011;8605;52.548;4.918;2023-04-15T04:05:44;1.07;;;1.07;;
16977;SDS011;8605;52.548;4.918;2023-04-15T04:11:02;0.95;;;0.93;;
16977;SDS011;8605;52.548;4.918;2023-04-15T04:16:07;1.20;;;1.10;;
16977;SDS011;8605;52.548;4.918;2023-04-15T04:21:11;0.47;;;0.47;;
16977;SDS011;8605;52.548;4.918;2023-04-15T04:26:14;1.40;;;1.15;;
16977;SDS011;8605;52.548;4.918;2023-04-15T04:31:18;1.43;;;1.17;;
16977;SDS011;8605;52.548;4.918;2023-04-15T04:36:38;0.50;;;0.50;;
16977;SDS011;8605;52.548;4.918;2023-04-15T04:41:40;0.47;;;0.47;;
16977;SDS011;8605;52.548;4.918;2023-04-15T04:46:46;0.80;;;0.80;;
16977;SDS011;8605;52.548;4.918;2023-04-15T04:51:49;5.33;;;2.00;;
16977;SDS011;8605;52.548;4.918;2023-04-15T04:56:57;1.00;;;0.80;;
16977;SDS011;8605;52.548;4.918;2023-04-15T05:02:15;0.70;;;0.70;;
16977;SDS011;8605;52.548;4.918;2023-04-15T05:07:18;1.77;;;1.27;;
16977;SDS011;8605;52.548;4.918;2023-04-15T05:12:21;5.97;;;2.17;;
16977;SDS011;8605;52.548;4.918;2023-04-15T05:17:25;0.87;;;0.87;;
16977;SDS011;8605;52.548;4.918;2023-04-15T05:22:28;0.82;;;0.82;;
16977;SDS011;8605;52.548;4.918;2023-04-15T05:27:50;2.20;;;1.35;;
16977;SDS011;8605;52.548;4.918;2023-04-15T05:32:54;0.60;;;0.60;;
16977;SDS011;8605;52.548;4.918;2023-04-15T05:37:57;0.60;;;0.60;;
16977;SDS011;8605;52.548;4.918;2023-04-15T05:43:00;0.70;;;0.70;;
16977;SDS011;8605;52.548;4.918;2023-04-15T05:48:05;0.90;;;0.80;;
16977;SDS011;8605;52.548;4.918;2023-04-15T05:53:27;0.70;;;0.70;;
16977;SDS011;8605;52.548;4.918;2023-04-15T05:58:30;0.70;;;0.70;;
16977;SDS011;8605;52.548;4.918;2023-04-15T06:03:34;0.87;;;0.87;;
16977;SDS011;8605;52.548;4.918;2023-04-15T06:08:37;3.25;;;1.23;;
16977;SDS011;8605;52.548;4.918;2023-04-15T06:13:40;1.00;;;1.00;;
16977;SDS011;8605;52.548;4.918;2023-04-15T06:19:05;0.55;;;0.52;;
16977;SDS011;8605;52.548;4.918;2023-04-15T06:24:07;2.50;;;1.20;;
16977;SDS011;8605;52.548;4.918;2023-04-15T06:29:33;0.80;;;0.80;;
16977;SDS011;8605;52.548;4.918;2023-04-15T06:34:37;0.60;;;0.50;;
16977;SDS011;8605;52.548;4.918;2023-04-15T06:39:40;0.90;;;0.40;;
16977;SDS011;8605;52.548;4.918;2023-04-15T06:44:43;1.10;;;0.57;;
16977;SDS011;8605;52.548;4.918;2023-04-15T06:49:47;0.70;;;0.70;;
16977;SDS011;8605;52.548;4.918;2023-04-15T06:54:50;0.73;;;0.73;;
16977;SDS011;8605;52.548;4.918;2023-04-15T06:59:53;3.57;;;1.60;;
16977;SDS011;8605;52.548;4.918;2023-04-15T07:04:58;0.70;;;0.70;;
16977;SDS011;8605;52.548;4.918;2023-04-15T07:10:15;1.10;;;0.68;;
16977;SDS011;8605;52.548;4.918;2023-04-15T07:15:18;2.15;;;1.35;;
16977;SDS011;8605;52.548;4.918;2023-04-15T07:20:24;0.50;;;0.50;;
16977;SDS011;8605;52.548;4.918;2023-04-15T07:25:27;2.43;;;1.87;;
16977;SDS011;8605;52.548;4.918;2023-04-15T07:30:30;0.60;;;0.60;;
16977;SDS011;8605;52.548;4.918;2023-04-15T07:35:53;1.23;;;0.73;;
16977;SDS011;8605;52.548;4.918;2023-04-15T07:40:56;4.60;;;1.60;;
16977;SDS011;8605;52.548;4.918;2023-04-15T07:45:59;2.10;;;1.33;;
16977;SDS011;8605;52.548;4.918;2023-04-15T07:51:04;3.20;;;1.50;;
16977;SDS011;8605;52.548;4.918;2023-04-15T07:56:07;0.30;;;0.30;;
16977;SDS011;8605;52.548;4.918;2023-04-15T08:01:29;0.85;;;0.85;;
16977;SDS011;8605;52.548;4.918;2023-04-15T08:06:34;0.73;;;0.73;;
16977;SDS011;8605;52.548;4.918;2023-04-15T08:11:40;1.15;;;1.05;;
16977;SDS011;8605;52.548;4.918;2023-04-15T08:16:43;0.43;;;0.43;;
16977;SDS011;8605;52.548;4.918;2023-04-15T08:21:47;0.40;;;0.40;;
16977;SDS011;8605;52.548;4.918;2023-04-15T08:27:05;0.60;;;0.30;;
16977;SDS011;8605;52.548;4.918;2023-04-15T08:32:08;1.40;;;0.90;;
16977;SDS011;8605;52.548;4.918;2023-04-15T08:37:12;0.50;;;0.50;;
16977;SDS011;8605;52.548;4.918;2023-04-15T08:42:16;0.70;;;0.70;;
16977;SDS011;8605;52.548;4.918;2023-04-15T08:47:19;0.20;;;0.20;;
16977;SDS011;8605;52.548;4.918;2023-04-15T08:52:42;3.00;;;2.10;;
16977;SDS011;8605;52.548;4.918;2023-04-15T08:57:45;0.30;;;0.30;;
16977;SDS011;8605;52.548;4.918;2023-04-15T09:02:48;3.03;;;0.90;;
16977;SDS011;8605;52.548;4.918;2023-04-15T09:07:52;0.80;;;0.50;;
16977;SDS011;8605;52.548;4.918;2023-04-15T09:12:55;0.60;;;0.50;;
16977;SDS011;8605;52.548;4.918;2023-04-15T09:18:25;0.85;;;0.85;;
16977;SDS011;8605;52.548;4.918;2023-04-15T09:23:33;0.90;;;0.60;;
16977;SDS011;8605;52.548;4.918;2023-04-15T09:28:40;0.70;;;0.70;;
16977;SDS011;8605;52.548;4.918;2023-04-15T09:33:53;0.60;;;0.50;;
16977;SDS011;8605;52.548;4.918;2023-04-15T09:38:58;0.25;;;0.20;;
16977;SDS011;8605;52.548;4.918;2023-04-15T09:44:02;1.20;;;1.13;;
16977;SDS011;8605;52.548;4.918;2023-04-15T09:49:06;0.38;;;0.38;;
16977;SDS011;8605;52.548;4.918;2023-04-15T09:54:11;0.30;;;0.30;;
16977;SDS011;8605;52.548;4.918;2023-04-15T09:59:13;1.70;;;1.30;;
16977;SDS011;8605;52.548;4.918;2023-04-15T10:04:16;0.57;;;0.57;;
16977;SDS011;8605;52.548;4.918;2023-04-15T10:09:31;0.30;;;0.30;;
16977;SDS011;8605;52.548;4.918;2023-04-15T10:14:35;0.40;;;0.40;;
16977;SDS011;8605;52.548;4.918;2023-04-15T10:19:39;7.50;;;2.35;;
16977;SDS011;8605;52.548;4.918;2023-04-15T10:24:44;0.20;;;0.20;;
16977;SDS011;8605;52.548;4.918;2023-04-15T10:29:49;0.10;;;0.10;;
16977;SDS011;8605;52.548;4.918;2023-04-15T10:35:07;0.73;;;0.73;;
16977;SDS011;8605;52.548;4.918;2023-04-15T10:40:25;2.70;;;0.70;;
16977;SDS011;8605;52.548;4.918;2023-04-15T10:45:31;0.50;;;0.50;;
16977;SDS011;8605;52.548;4.918;2023-04-15T10:50:35;0.30;;;0.30;;
16977;SDS011;8605;52.548;4.918;2023-04-15T10:55:41;3.30;;;1.10;;
16977;SDS011;8605;52.548;4.918;2023-04-15T11:00:48;0.55;;;0.45;;
16977;SDS011;8605;52.548;4.918;2023-04-15T11:05:53;0.80;;;0.33;;
16977;SDS011;8605;52.548;4.918;2023-04-15T11:10:59;0.30;;;0.30;;
16977;SDS011;8605;52.548;4.918;2023-04-15T11:16:02;0.28;;;0.28;;
16977;SDS011;8605;52.548;4.918;2023-04-15T11:21:06;0.50;;;0.20;;
16977;SDS011;8605;52.548;4.918;2023-04-15T11:26:19;0.10;;;0.10;;
16977;SDS011;8605;52.548;4.918;2023-04-15T11:31:28;0.60;;;0.50;;
16977;SDS011;8605;52.548;4.918;2023-04-15T11:36:30;0.43;;;0.38;;
16977;SDS011;8605;52.548;4.918;2023-04-15T11:41:35;0.52;;;0.52;;
16977;SDS011;8605;52.548;4.918;2023-04-15T11:46:38;0.40;;;0.17;;
16977;SDS011;8605;52.548;4.918;2023-04-15T11:51:55;0.70;;;0.30;;
16977;SDS011;8605;52.548;4.918;2023-04-15T11:57:00;0.85;;;0.43;;
16977;SDS011;8605;52.548;4.918;2023-04-15T12:02:10;0.33;;;0.33;;
16977;SDS011;8605;52.548;4.918;2023-04-15T12:07:13;0.90;;;0.70;;
16977;SDS011;8605;52.548;4.918;2023-04-15T12:12:21;1.80;;;1.30;;
16977;SDS011;8605;52.548;4.918;2023-04-15T12:17:30;1.20;;;0.50;;
16977;SDS011;8605;52.548;4.918;2023-04-15T12:22:52;0.20;;;0.20;;
16977;SDS011;8605;52.548;4.918;2023-04-15T12:27:56;0.45;;;0.43;;
16977;SDS011;8605;52.548;4.918;2023-04-15T12:32:59;0.30;;;0.30;;
16977;SDS011;8605;52.548;4.918;2023-04-15T12:38:05;2.73;;;1.30;;
16977;SDS011;8605;52.548;4.918;2023-04-15T12:43:10;0.40;;;0.40;;
16977;SDS011;8605;52.548;4.918;2023-04-15T12:48:13;0.30;;;0.30;;
16977;SDS011;8605;52.548;4.918;2023-04-15T12:53:17;0.40;;;0.40;;
16977;SDS011;8605;52.548;4.918;2023-04-15T12:58:21;0.30;;;0.30;;
16977;SDS011;8605;52.548;4.918;2023-04-15T13:03:24;0.43;;;0.43;;
16977;SDS011;8605;52.548;4.918;2023-04-15T13:08:43;0.38;;;0.38;;
16977;SDS011;8605;52.548;4.918;2023-04-15T13:13:59;0.45;;;0.45;;
16977;SDS011;8605;52.548;4.918;2023-04-15T13:19:02;0.30;;;0.30;;
16977;SDS011;8605;52.548;4.918;2023-04-15T13:24:05;0.27;;;0.27;;
16977;SDS011;8605;52.548;4.918;2023-04-15T13:29:11;1.20;;;0.70;;
16977;SDS011;8605;52.548;4.918;2023-04-15T13:34:20;0.10;;;0.10;;
16977;SDS011;8605;52.548;4.918;2023-04-15T13:39:23;0.70;;;0.70;;
16977;SDS011;8605;52.548;4.918;2023-04-15T13:44:28;0.10;;;0.10;;
16977;SDS011;8605;52.548;4.918;2023-04-15T13:49:31;0.40;;;0.40;;
16977;SDS011;8605;52.548;4.918;2023-04-15T13:54:34;0.30;;;0.30;;
16977;SDS011;8605;52.548;4.918;2023-04-15T13:59:56;0.77;;;0.77;;
16977;SDS011;8605;52.548;4.918;2023-04-15T14:04:59;0.30;;;0.30;;
16977;SDS011;8605;52.548;4.918;2023-04-15T14:10:03;0.10;;;0.10;;
16977;SDS011;8605;52.548;4.918;2023-04-15T14:15:08;0.90;;;0.40;;
16977;SDS011;8605;52.548;4.918;2023-04-15T14:20:11;0.73;;;0.73;;
16977;SDS011;8605;52.548;4.918;2023-04-15T14:25:32;1.30;;;0.70;;
16977;SDS011;8605;52.548;4.918;2023-04-15T14:30:36;0.97;;;0.57;;
16977;SDS011;8605;52.548;4.918;2023-04-15T14:35:39;0.20;;;0.20;;
16977;SDS011;8605;52.548;4.918;2023-04-15T14:40:42;0.20;;;0.20;;
16977;SDS011;8605;52.548;4.918;2023-04-15T14:45:47;0.20;;;0.20;;
16977;SDS011;8605;52.548;4.918;2023-04-15T14:51:08;0.30;;;0.30;;
16977;SDS011;8605;52.548;4.918;2023-04-15T14:56:11;0.60;;;0.20;;
16977;SDS011;8605;52.548;4.918;2023-04-15T15:01:15;0.50;;;0.50;;
16977;SDS011;8605;52.548;4.918;2023-04-15T15:06:19;0.20;;;0.20;;
16977;SDS011;8605;52.548;4.918;2023-04-15T15:11:24;0.20;;;0.20;;
16977;SDS011;8605;52.548;4.918;2023-04-15T15:16:45;0.20;;;0.20;;
16977;SDS011;8605;52.548;4.918;2023-04-15T15:21:48;0.00;;;0.00;;
16977;SDS011;8605;52.548;4.918;2023-04-15T15:26:52;0.20;;;0.20;;
16977;SDS011;8605;52.548;4.918;2023-04-15T15:31:57;0.30;;;0.30;;
16977;SDS011;8605;52.548;4.918;2023-04-15T15:37:00;0.80;;;0.70;;
16977;SDS011;8605;52.548;4.918;2023-04-15T15:42:21;0.10;;;0.10;;
16977;SDS011;8605;52.548;4.918;2023-04-15T15:47:27;4.90;;;0.73;;
16977;SDS011;8605;52.548;4.918;2023-04-15T15:52:30;0.30;;;0.20;;
16977;SDS011;8605;52.548;4.918;2023-04-15T15:57:33;0.30;;;0.30;;
16977;SDS011;8605;52.548;4.918;2023-04-15T16:02:39;0.10;;;0.10;;
16977;SDS011;8605;52.548;4.918;2023-04-15T16:07:57;0.30;;;0.30;;
16977;SDS011;8605;52.548;4.918;2023-04-15T16:13:00;0.20;;;0.20;;
16977;SDS011;8605;52.548;4.918;2023-04-15T16:18:06;0.50;;;0.50;;
16977;SDS011;8605;52.548;4.918;2023-04-15T16:23:10;0.15;;;0.15;;
16977;SDS011;8605;52.548;4.918;2023-04-15T16:28:14;0.60;;;0.60;;
16977;SDS011;8605;52.548;4.918;2023-04-15T16:33:36;0.15;;;0.15;;
16977;SDS011;8605;52.548;4.918;2023-04-15T16:38:39;1.30;;;0.90;;
16977;SDS011;8605;52.548;4.918;2023-04-15T16:43:41;2.70;;;0.25;;
16977;SDS011;8605;52.548;4.918;2023-04-15T16:48:46;0.75;;;0.75;;
16977;SDS011;8605;52.548;4.918;2023-04-15T16:53:49;0.40;;;0.40;;
16977;SDS011;8605;52.548;4.918;2023-04-15T16:59:12;0.40;;;0.30;;
16977;SDS011;8605;52.548;4.918;2023-04-15T17:04:16;0.13;;;0.13;;
16977;SDS011;8605;52.548;4.918;2023-04-15T17:09:38;0.30;;;0.30;;
16977;SDS011;8605;52.548;4.918;2023-04-15T17:14:42;0.30;;;0.30;;
16977;SDS011;8605;52.548;4.918;2023-04-15T17:19:46;0.10;;;0.10;;
16977;SDS011;8605;52.548;4.918;2023-04-15T17:24:49;0.30;;;0.30;;
16977;SDS011;8605;52.548;4.918;2023-04-15T17:29:52;0.13;;;0.13;;
16977;SDS011;8605;52.548;4.918;2023-04-15T17:34:56;0.30;;;0.30;;
16977;SDS011;8605;52.548;4.918;2023-04-15T17:39:59;0.80;;;0.80;;
16977;SDS011;8605;52.548;4.918;2023-04-15T17:45:05;0.15;;;0.15;;
16977;SDS011;8605;52.548;4.918;2023-04-15T17:50:25;0.43;;;0.43;;
16977;SDS011;8605;52.548;4.918;2023-04-15T17:55:28;0.28;;;0.28;;
16977;SDS011;8605;52.548;4.918;2023-04-15T18:00:31;0.40;;;0.40;;
16977;SDS011;8605;52.548;4.918;2023-04-15T18:05:35;0.40;;;0.40;;
16977;SDS011;8605;52.548;4.918;2023-04-15T18:10:41;0.25;;;0.25;;
16977;SDS011;8605;52.548;4.918;2023-04-15T18:16:02;0.40;;;0.30;;
16977;SDS011;8605;52.548;4.918;2023-04-15T18:21:07;1.90;;;0.30;;
16977;SDS011;8605;52.548;4.918;2023-04-15T18:26:13;0.10;;;0.10;;
16977;SDS011;8605;52.548;4.918;2023-04-15T18:31:16;0.57;;;0.57;;
16977;SDS011;8605;52.548;4.918;2023-04-15T18:36:21;0.30;;;0.30;;
16977;SDS011;8605;52.548;4.918;2023-04-15T18:41:36;0.15;;;0.15;;
16977;SDS011;8605;52.548;4.918;2023-04-15T18:46:39;0.15;;;0.15;;
16977;SDS011;8605;52.548;4.918;2023-04-15T18:51:50;0.30;;;0.30;;
16977;SDS011;8605;52.548;4.918;2023-04-15T18:56:53;0.20;;;0.20;;
16977;SDS011;8605;52.548;4.918;2023-04-15T19:01:57;0.30;;;0.30;;
16977;SDS011;8605;52.548;4.918;2023-04-15T19:07:15;0.22;;;0.22;;
16977;SDS011;8605;52.548;4.918;2023-04-15T19:12:17;0.50;;;0.50;;
16977;SDS011;8605;52.548;4.918;2023-04-15T19:17:20;0.30;;;0.30;;
16977;SDS011;8605;52.548;4.918;2023-04-15T19:22:25;8.70;;;0.38;;
16977;SDS011;8605;52.548;4.918;2023-04-15T19:27:28;0.10;;;0.10;;
16977;SDS011;8605;52.548;4.918;2023-04-15T19:32:49;0.40;;;0.40;;
16977;SDS011;8605;52.548;4.918;2023-04-15T19:37:53;0.70;;;0.70;;
16977;SDS011;8605;52.548;4.918;2023-04-15T19:42:56;1.10;;;1.00;;
16977;SDS011;8605;52.548;4.918;2023-04-15T19:47:59;0.10;;;0.10;;
16977;SDS011;8605;52.548;4.918;2023-04-15T19:53:03;0.10;;;0.10;;
16977;SDS011;8605;52.548;4.918;2023-04-15T19:58:26;0.17;;;0.17;;
16977;SDS011;8605;52.548;4.918;2023-04-15T20:03:29;1.00;;;0.73;;
16977;SDS011;8605;52.548;4.918;2023-04-15T20:08:34;0.30;;;0.13;;
16977;SDS011;8605;52.548;4.918;2023-04-15T20:13:36;12.25;;;3.28;;
16977;SDS011;8605;52.548;4.918;2023-04-15T20:18:39;9.60;;;2.53;;
16977;SDS011;8605;52.548;4.918;2023-04-15T20:24:04;9.65;;;2.55;;
16977;SDS011;8605;52.548;4.918;2023-04-15T20:29:08;10.98;;;2.85;;
16977;SDS011;8605;52.548;4.918;2023-04-15T20:34:11;9.07;;;2.50;;
16977;SDS011;8605;52.548;4.918;2023-04-15T20:39:15;10.93;;;3.13;;
16977;SDS011;8605;52.548;4.918;2023-04-15T20:44:18;9.98;;;3.70;;
16977;SDS011;8605;52.548;4.918;2023-04-15T20:49:37;10.90;;;3.17;;
16977;SDS011;8605;52.548;4.918;2023-04-15T20:54:43;7.95;;;3.42;;
16977;SDS011;8605;52.548;4.918;2023-04-15T20:59:47;8.43;;;3.88;;
16977;SDS011;8605;52.548;4.918;2023-04-15T21:04:50;11.23;;;3.67;;
16977;SDS011;8605;52.548;4.918;2023-04-15T21:09:54;12.32;;;4.10;;
16977;SDS011;8605;52.548;4.918;2023-04-15T21:15:13;12.43;;;4.47;;
16977;SDS011;8605;52.548;4.918;2023-04-15T21:20:16;11.15;;;4.43;;
16977;SDS011;8605;52.548;4.918;2023-04-15T21:25:21;15.60;;;4.23;;
16977;SDS011;8605;52.548;4.918;2023-04-15T21:30:24;17.45;;;5.05;;
16977;SDS011;8605;52.548;4.918;2023-04-15T21:35:27;13.80;;;4.37;;
16977;SDS011;8605;52.548;4.918;2023-04-15T21:40:51;20.07;;;5.60;;
16977;SDS011;8605;52.548;4.918;2023-04-15T21:45:54;16.92;;;5.18;;
16977;SDS011;8605;52.548;4.918;2023-04-15T21:51:17;21.70;;;5.80;;
16977;SDS011;8605;52.548;4.918;2023-04-15T21:56:21;18.13;;;6.15;;
16977;SDS011;8605;52.548;4.918;2023-04-15T22:01:25;18.73;;;6.13;;
16977;SDS011;8605;52.548;4.918;2023-04-15T22:06:28;21.08;;;5.45;;
16977;SDS011;8605;52.548;4.918;2023-04-15T22:11:33;24.17;;;5.88;;
16977;SDS011;8605;52.548;4.918;2023-04-15T22:16:36;19.60;;;6.33;;
16977;SDS011;8605;52.548;4.918;2023-04-15T22:21:39;24.05;;;5.60;;
16977;SDS011;8605;52.548;4.918;2023-04-15T22:26:44;19.20;;;5.60;;
16977;SDS011;8605;52.548;4.918;2023-04-15T22:32:03;23.25;;;7.03;;
16977;SDS011;8605;52.548;4.918;2023-04-15T22:37:06;22.65;;;5.88;;
16977;SDS011;8605;52.548;4.918;2023-04-15T22:42:10;17.10;;;6.70;;
16977;SDS011;8605;52.548;4.918;2023-04-15T22:47:13;24.48;;;7.07;;
16977;SDS011;8605;52.548;4.918;2023-04-15T22:52:16;27.08;;;7.47;;
16977;SDS011;8605;52.548;4.918;2023-04-15T22:57:40;26.88;;;7.63;;
16977;SDS011;8605;52.548;4.918;2023-04-15T23:02:43;33.00;;;8.90;;
16977;SDS011;8605;52.548;4.918;2023-04-15T23:07:46;34.60;;;9.55;;
16977;SDS011;8605;52.548;4.918;2023-04-15T23:12:50;25.15;;;9.55;;
16977;SDS011;8605;52.548;4.918;2023-04-15T23:17:53;32.67;;;11.17;;
16977;SDS011;8605;52.548;4.918;2023-04-15T23:23:16;32.55;;;11.88;;
16977;SDS011;8605;52.548;4.918;2023-04-15T23:28:21;40.37;;;12.53;;
16977;SDS011;8605;52.548;4.918;2023-04-15T23:33:24;35.10;;;13.02;;
16977;SDS011;8605;52.548;4.918;2023-04-15T23:38:27;37.93;;;13.57;;
16977;SDS011;8605;52.548;4.918;2023-04-15T23:43:31;38.08;;;15.05;;
16977;SDS011;8605;52.548;4.918;2023-04-15T23:48:51;36.57;;;15.50;;
16977;SDS011;8605;52.548;4.918;2023-04-15T23:53:54;38.75;;;16.40;;
16977;SDS011;8605;52.548;4.918;2023-04-15T23:58:58;42.92;;;17.23;;
